Archival Weather

Ambodedjo

Ambodedjo, Mali (GAMB)

Report from: Tuesday, June 6, 2023 12:00 AM GMT
Current time: Tuesday, April 23, 2024 6:59 AM GMT

Current weather – Weather history – Daily summaries
Weather forecast

Temperature32.0°C (89.6°F)
Heat index33.5°C (92.3°F)
Dew point19.0°C (66.2°F)
Winds Calm
Clouds Sky clear
Altimeter29.83 in.Hg (1010 mB)
Relative humidity46 %
Density altitude2,348 ft. (716 m)
Remarks Ceiling and visibility OK
Flight conditions Visual Meteorological Conditions
Raw dataGAMB 060000Z 00000KT CAVOK 32/19 Q1010
An error has occurred. This application may no longer respond until reloaded. Reload 🗙